sensor_id;sensor_type;location;lat;lon;timestamp;P1;durP1;ratioP1;P2;durP2;ratioP2
77984;SDS011;67177;47.240;-1.546;2023-03-20T00:02:06;4.07;;;1.23;;
77984;SDS011;67177;47.240;-1.546;2023-03-20T00:04:32;5.18;;;1.15;;
77984;SDS011;67177;47.240;-1.546;2023-03-20T00:06:58;2.85;;;0.80;;
77984;SDS011;67177;47.240;-1.546;2023-03-20T00:09:24;4.40;;;1.00;;
77984;SDS011;67177;47.240;-1.546;2023-03-20T00:11:50;3.65;;;0.80;;
77984;SDS011;67177;47.240;-1.546;2023-03-20T00:14:20;3.35;;;0.82;;
77984;SDS011;67177;47.240;-1.546;2023-03-20T00:16:48;4.07;;;1.02;;
77984;SDS011;67177;47.240;-1.546;2023-03-20T00:21:50;4.63;;;1.20;;
77984;SDS011;67177;47.240;-1.546;2023-03-20T00:24:17;3.30;;;0.88;;
77984;SDS011;67177;47.240;-1.546;2023-03-20T00:26:43;3.38;;;0.90;;
77984;SDS011;67177;47.240;-1.546;2023-03-20T00:29:15;6.93;;;1.10;;
77984;SDS011;67177;47.240;-1.546;2023-03-20T00:31:46;5.47;;;1.40;;
77984;SDS011;67177;47.240;-1.546;2023-03-20T00:34:12;5.00;;;1.23;;
77984;SDS011;67177;47.240;-1.546;2023-03-20T00:36:40;4.22;;;1.25;;
77984;SDS011;67177;47.240;-1.546;2023-03-20T00:39:06;4.65;;;1.00;;
77984;SDS011;67177;47.240;-1.546;2023-03-20T00:46:37;3.47;;;1.00;;
77984;SDS011;67177;47.240;-1.546;2023-03-20T00:49:04;3.83;;;0.93;;
77984;SDS011;67177;47.240;-1.546;2023-03-20T00:51:30;3.17;;;0.90;;
77984;SDS011;67177;47.240;-1.546;2023-03-20T00:53:56;3.20;;;0.77;;
77984;SDS011;67177;47.240;-1.546;2023-03-20T00:56:35;3.50;;;0.90;;
77984;SDS011;67177;47.240;-1.546;2023-03-20T00:59:04;3.78;;;0.90;;
77984;SDS011;67177;47.240;-1.546;2023-03-20T01:01:33;3.63;;;1.00;;
77984;SDS011;67177;47.240;-1.546;2023-03-20T01:03:59;5.38;;;1.13;;
77984;SDS011;67177;47.240;-1.546;2023-03-20T01:06:25;5.57;;;1.40;;
77984;SDS011;67177;47.240;-1.546;2023-03-20T01:08:52;6.88;;;2.10;;
77984;SDS011;67177;47.240;-1.546;2023-03-20T01:11:21;4.88;;;1.40;;
77984;SDS011;67177;47.240;-1.546;2023-03-20T01:13:48;3.90;;;1.13;;
77984;SDS011;67177;47.240;-1.546;2023-03-20T01:16:20;3.40;;;1.00;;
77984;SDS011;67177;47.240;-1.546;2023-03-20T01:18:48;4.15;;;1.00;;
77984;SDS011;67177;47.240;-1.546;2023-03-20T01:21:14;3.15;;;0.90;;
77984;SDS011;67177;47.240;-1.546;2023-03-20T01:23:40;3.72;;;1.00;;
77984;SDS011;67177;47.240;-1.546;2023-03-20T01:28:56;3.90;;;0.80;;
77984;SDS011;67177;47.240;-1.546;2023-03-20T01:31:22;3.22;;;0.80;;
77984;SDS011;67177;47.240;-1.546;2023-03-20T01:33:47;3.87;;;0.90;;
77984;SDS011;67177;47.240;-1.546;2023-03-20T01:36:14;3.40;;;1.00;;
77984;SDS011;67177;47.240;-1.546;2023-03-20T01:38:41;4.37;;;0.97;;
77984;SDS011;67177;47.240;-1.546;2023-03-20T01:43:36;2.75;;;0.70;;
77984;SDS011;67177;47.240;-1.546;2023-03-20T01:46:04;2.55;;;0.68;;
77984;SDS011;67177;47.240;-1.546;2023-03-20T01:51:29;4.10;;;0.80;;
77984;SDS011;67177;47.240;-1.546;2023-03-20T01:56:56;4.47;;;1.02;;
77984;SDS011;67177;47.240;-1.546;2023-03-20T01:59:29;3.87;;;0.80;;
77984;SDS011;67177;47.240;-1.546;2023-03-20T02:01:59;3.72;;;0.90;;
77984;SDS011;67177;47.240;-1.546;2023-03-20T02:04:26;3.58;;;0.82;;
77984;SDS011;67177;47.240;-1.546;2023-03-20T02:06:58;4.15;;;1.10;;
77984;SDS011;67177;47.240;-1.546;2023-03-20T02:09:24;4.50;;;1.10;;
77984;SDS011;67177;47.240;-1.546;2023-03-20T02:11:50;3.90;;;1.00;;
77984;SDS011;67177;47.240;-1.546;2023-03-20T02:14:17;3.10;;;0.90;;
77984;SDS011;67177;47.240;-1.546;2023-03-20T02:16:45;4.93;;;1.00;;
77984;SDS011;67177;47.240;-1.546;2023-03-20T02:19:30;5.20;;;1.35;;
77984;SDS011;67177;47.240;-1.546;2023-03-20T02:27:29;3.90;;;1.08;;
77984;SDS011;67177;47.240;-1.546;2023-03-20T02:30:42;4.05;;;0.90;;
77984;SDS011;67177;47.240;-1.546;2023-03-20T02:35:54;4.07;;;0.90;;
77984;SDS011;67177;47.240;-1.546;2023-03-20T02:43:57;2.80;;;0.70;;
77984;SDS011;67177;47.240;-1.546;2023-03-20T02:57:01;3.43;;;0.93;;
77984;SDS011;67177;47.240;-1.546;2023-03-20T02:59:53;4.25;;;1.00;;
77984;SDS011;67177;47.240;-1.546;2023-03-20T03:02:37;3.90;;;0.90;;
77984;SDS011;67177;47.240;-1.546;2023-03-20T03:05:08;3.70;;;0.90;;
77984;SDS011;67177;47.240;-1.546;2023-03-20T03:07:45;3.17;;;0.80;;
77984;SDS011;67177;47.240;-1.546;2023-03-20T03:10:25;3.43;;;1.00;;
77984;SDS011;67177;47.240;-1.546;2023-03-20T03:12:56;3.22;;;0.80;;
77984;SDS011;67177;47.240;-1.546;2023-03-20T03:18:01;3.33;;;1.00;;
77984;SDS011;67177;47.240;-1.546;2023-03-20T03:20:31;3.83;;;0.80;;
77984;SDS011;67177;47.240;-1.546;2023-03-20T03:23:00;2.10;;;0.77;;
77984;SDS011;67177;47.240;-1.546;2023-03-20T03:25:27;3.22;;;0.90;;
77984;SDS011;67177;47.240;-1.546;2023-03-20T03:28:08;3.17;;;0.90;;
77984;SDS011;67177;47.240;-1.546;2023-03-20T03:30:45;2.90;;;0.82;;
77984;SDS011;67177;47.240;-1.546;2023-03-20T03:35:49;3.27;;;1.00;;
77984;SDS011;67177;47.240;-1.546;2023-03-20T03:41:16;3.53;;;0.98;;
77984;SDS011;67177;47.240;-1.546;2023-03-20T03:46:42;4.30;;;1.10;;
77984;SDS011;67177;47.240;-1.546;2023-03-20T03:49:17;2.87;;;0.80;;
77984;SDS011;67177;47.240;-1.546;2023-03-20T03:51:51;3.80;;;0.93;;
77984;SDS011;67177;47.240;-1.546;2023-03-20T03:57:13;4.10;;;1.00;;
77984;SDS011;67177;47.240;-1.546;2023-03-20T03:59:43;4.30;;;1.10;;
77984;SDS011;67177;47.240;-1.546;2023-03-20T04:02:13;3.57;;;0.90;;
77984;SDS011;67177;47.240;-1.546;2023-03-20T04:04:44;3.42;;;1.10;;
77984;SDS011;67177;47.240;-1.546;2023-03-20T04:07:12;4.45;;;0.90;;
77984;SDS011;67177;47.240;-1.546;2023-03-20T04:09:39;3.40;;;0.90;;
77984;SDS011;67177;47.240;-1.546;2023-03-20T04:12:05;3.20;;;0.90;;
77984;SDS011;67177;47.240;-1.546;2023-03-20T04:14:42;3.28;;;0.93;;
77984;SDS011;67177;47.240;-1.546;2023-03-20T04:17:08;3.05;;;0.80;;
77984;SDS011;67177;47.240;-1.546;2023-03-20T04:19:33;3.23;;;0.83;;
77984;SDS011;67177;47.240;-1.546;2023-03-20T04:21:59;3.25;;;0.90;;
77984;SDS011;67177;47.240;-1.546;2023-03-20T04:24:25;2.97;;;0.70;;
77984;SDS011;67177;47.240;-1.546;2023-03-20T04:26:50;3.07;;;0.80;;
77984;SDS011;67177;47.240;-1.546;2023-03-20T04:29:16;3.40;;;0.95;;
77984;SDS011;67177;47.240;-1.546;2023-03-20T04:31:41;2.47;;;0.70;;
77984;SDS011;67177;47.240;-1.546;2023-03-20T04:34:07;2.90;;;0.90;;
77984;SDS011;67177;47.240;-1.546;2023-03-20T04:36:33;2.73;;;0.70;;
77984;SDS011;67177;47.240;-1.546;2023-03-20T04:38:58;3.13;;;0.80;;
77984;SDS011;67177;47.240;-1.546;2023-03-20T04:41:24;2.70;;;0.85;;
77984;SDS011;67177;47.240;-1.546;2023-03-20T04:43:50;3.80;;;0.80;;
77984;SDS011;67177;47.240;-1.546;2023-03-20T04:46:16;3.17;;;0.70;;
77984;SDS011;67177;47.240;-1.546;2023-03-20T04:48:41;3.10;;;0.70;;
77984;SDS011;67177;47.240;-1.546;2023-03-20T04:51:07;2.72;;;0.68;;
77984;SDS011;67177;47.240;-1.546;2023-03-20T04:53:33;2.50;;;0.70;;
77984;SDS011;67177;47.240;-1.546;2023-03-20T04:55:58;2.72;;;0.80;;
77984;SDS011;67177;47.240;-1.546;2023-03-20T04:58:24;3.53;;;0.60;;
77984;SDS011;67177;47.240;-1.546;2023-03-20T05:00:49;2.53;;;0.60;;
77984;SDS011;67177;47.240;-1.546;2023-03-20T05:03:15;3.28;;;0.70;;
77984;SDS011;67177;47.240;-1.546;2023-03-20T05:05:41;2.77;;;0.60;;
77984;SDS011;67177;47.240;-1.546;2023-03-20T05:08:07;2.53;;;0.68;;
77984;SDS011;67177;47.240;-1.546;2023-03-20T05:10:33;2.97;;;0.73;;
77984;SDS011;67177;47.240;-1.546;2023-03-20T05:12:58;2.03;;;0.67;;
77984;SDS011;67177;47.240;-1.546;2023-03-20T05:15:25;3.25;;;0.68;;
77984;SDS011;67177;47.240;-1.546;2023-03-20T05:17:50;2.73;;;0.80;;
77984;SDS011;67177;47.240;-1.546;2023-03-20T05:20:17;3.95;;;0.70;;
77984;SDS011;67177;47.240;-1.546;2023-03-20T05:22:42;3.83;;;1.00;;
77984;SDS011;67177;47.240;-1.546;2023-03-20T05:25:08;2.90;;;0.70;;
77984;SDS011;67177;47.240;-1.546;2023-03-20T05:27:33;2.90;;;0.80;;
77984;SDS011;67177;47.240;-1.546;2023-03-20T05:29:59;2.58;;;0.80;;
77984;SDS011;67177;47.240;-1.546;2023-03-20T05:32:25;2.97;;;0.70;;
77984;SDS011;67177;47.240;-1.546;2023-03-20T05:34:51;2.55;;;0.70;;
77984;SDS011;67177;47.240;-1.546;2023-03-20T05:37:16;3.22;;;0.80;;
77984;SDS011;67177;47.240;-1.546;2023-03-20T05:39:42;2.85;;;0.80;;
77984;SDS011;67177;47.240;-1.546;2023-03-20T05:42:08;2.20;;;0.60;;
77984;SDS011;67177;47.240;-1.546;2023-03-20T05:44:33;2.53;;;0.68;;
77984;SDS011;67177;47.240;-1.546;2023-03-20T05:46:59;2.80;;;0.73;;
77984;SDS011;67177;47.240;-1.546;2023-03-20T05:49:25;2.47;;;0.70;;
77984;SDS011;67177;47.240;-1.546;2023-03-20T05:51:50;2.60;;;0.70;;
77984;SDS011;67177;47.240;-1.546;2023-03-20T05:54:16;3.07;;;0.90;;
77984;SDS011;67177;47.240;-1.546;2023-03-20T05:56:41;2.85;;;0.80;;
77984;SDS011;67177;47.240;-1.546;2023-03-20T05:59:07;3.27;;;0.83;;
77984;SDS011;67177;47.240;-1.546;2023-03-20T06:01:33;2.70;;;0.73;;
77984;SDS011;67177;47.240;-1.546;2023-03-20T06:03:58;3.70;;;0.85;;
77984;SDS011;67177;47.240;-1.546;2023-03-20T06:06:24;2.80;;;0.77;;
77984;SDS011;67177;47.240;-1.546;2023-03-20T06:08:50;2.97;;;0.80;;
77984;SDS011;67177;47.240;-1.546;2023-03-20T06:11:15;3.30;;;0.80;;
77984;SDS011;67177;47.240;-1.546;2023-03-20T06:13:41;2.58;;;0.80;;
77984;SDS011;67177;47.240;-1.546;2023-03-20T06:16:07;2.97;;;0.80;;
77984;SDS011;67177;47.240;-1.546;2023-03-20T06:18:33;2.72;;;0.70;;
77984;SDS011;67177;47.240;-1.546;2023-03-20T06:20:58;2.73;;;0.70;;
77984;SDS011;67177;47.240;-1.546;2023-03-20T06:23:25;2.13;;;0.65;;
77984;SDS011;67177;47.240;-1.546;2023-03-20T06:25:51;3.38;;;0.98;;
77984;SDS011;67177;47.240;-1.546;2023-03-20T06:28:17;2.58;;;0.60;;
77984;SDS011;67177;47.240;-1.546;2023-03-20T06:30:43;2.70;;;0.70;;
77984;SDS011;67177;47.240;-1.546;2023-03-20T06:33:09;3.22;;;0.90;;
77984;SDS011;67177;47.240;-1.546;2023-03-20T06:35:34;3.75;;;0.90;;
77984;SDS011;67177;47.240;-1.546;2023-03-20T06:38:00;3.27;;;0.80;;
77984;SDS011;67177;47.240;-1.546;2023-03-20T06:40:26;4.32;;;0.80;;
77984;SDS011;67177;47.240;-1.546;2023-03-20T06:42:53;3.40;;;0.70;;
77984;SDS011;67177;47.240;-1.546;2023-03-20T06:45:19;2.30;;;0.70;;
77984;SDS011;67177;47.240;-1.546;2023-03-20T06:47:45;3.47;;;0.80;;
77984;SDS011;67177;47.240;-1.546;2023-03-20T06:50:11;2.35;;;0.63;;
77984;SDS011;67177;47.240;-1.546;2023-03-20T06:52:38;2.50;;;0.80;;
77984;SDS011;67177;47.240;-1.546;2023-03-20T06:55:05;1.60;;;0.50;;
77984;SDS011;67177;47.240;-1.546;2023-03-20T06:57:31;2.88;;;0.70;;
77984;SDS011;67177;47.240;-1.546;2023-03-20T06:59:57;2.22;;;0.70;;
77984;SDS011;67177;47.240;-1.546;2023-03-20T07:02:24;3.17;;;0.70;;
77984;SDS011;67177;47.240;-1.546;2023-03-20T07:04:49;2.87;;;0.90;;
77984;SDS011;67177;47.240;-1.546;2023-03-20T07:07:16;3.65;;;0.80;;
77984;SDS011;67177;47.240;-1.546;2023-03-20T07:09:42;2.67;;;0.70;;
77984;SDS011;67177;47.240;-1.546;2023-03-20T07:12:10;3.20;;;0.80;;
77984;SDS011;67177;47.240;-1.546;2023-03-20T07:14:40;4.00;;;0.90;;
77984;SDS011;67177;47.240;-1.546;2023-03-20T07:17:06;3.17;;;0.80;;
77984;SDS011;67177;47.240;-1.546;2023-03-20T07:19:33;3.00;;;0.70;;
77984;SDS011;67177;47.240;-1.546;2023-03-20T07:22:02;3.28;;;0.80;;
77984;SDS011;67177;47.240;-1.546;2023-03-20T07:24:30;2.80;;;0.80;;
77984;SDS011;67177;47.240;-1.546;2023-03-20T07:26:56;3.63;;;0.90;;
77984;SDS011;67177;47.240;-1.546;2023-03-20T07:29:22;3.57;;;0.80;;
77984;SDS011;67177;47.240;-1.546;2023-03-20T07:31:48;2.70;;;0.80;;
77984;SDS011;67177;47.240;-1.546;2023-03-20T07:34:13;3.17;;;0.80;;
77984;SDS011;67177;47.240;-1.546;2023-03-20T07:36:39;3.60;;;1.00;;
77984;SDS011;67177;47.240;-1.546;2023-03-20T07:39:06;3.23;;;0.90;;
77984;SDS011;67177;47.240;-1.546;2023-03-20T07:41:32;3.50;;;0.85;;
77984;SDS011;67177;47.240;-1.546;2023-03-20T07:43:58;2.80;;;0.80;;
77984;SDS011;67177;47.240;-1.546;2023-03-20T07:46:24;4.03;;;1.10;;
77984;SDS011;67177;47.240;-1.546;2023-03-20T07:48:50;3.55;;;1.08;;
77984;SDS011;67177;47.240;-1.546;2023-03-20T07:51:16;4.32;;;1.00;;
77984;SDS011;67177;47.240;-1.546;2023-03-20T07:53:41;4.20;;;1.10;;
77984;SDS011;67177;47.240;-1.546;2023-03-20T07:56:07;2.72;;;0.80;;
77984;SDS011;67177;47.240;-1.546;2023-03-20T07:58:33;3.67;;;0.80;;
77984;SDS011;67177;47.240;-1.546;2023-03-20T08:00:59;3.22;;;0.77;;
77984;SDS011;67177;47.240;-1.546;2023-03-20T08:03:25;4.80;;;0.90;;
77984;SDS011;67177;47.240;-1.546;2023-03-20T08:05:51;3.80;;;1.00;;
77984;SDS011;67177;47.240;-1.546;2023-03-20T08:08:17;5.68;;;1.17;;
77984;SDS011;67177;47.240;-1.546;2023-03-20T08:10:43;7.07;;;1.40;;
77984;SDS011;67177;47.240;-1.546;2023-03-20T08:13:09;4.70;;;1.38;;
77984;SDS011;67177;47.240;-1.546;2023-03-20T08:15:34;5.00;;;1.10;;
77984;SDS011;67177;47.240;-1.546;2023-03-20T08:18:00;6.65;;;1.40;;
77984;SDS011;67177;47.240;-1.546;2023-03-20T08:20:26;6.83;;;1.47;;
77984;SDS011;67177;47.240;-1.546;2023-03-20T08:22:52;10.23;;;1.50;;
77984;SDS011;67177;47.240;-1.546;2023-03-20T08:25:17;6.60;;;1.57;;
77984;SDS011;67177;47.240;-1.546;2023-03-20T08:27:43;5.78;;;1.65;;
77984;SDS011;67177;47.240;-1.546;2023-03-20T08:30:09;4.80;;;1.20;;
77984;SDS011;67177;47.240;-1.546;2023-03-20T08:32:35;7.10;;;1.20;;
77984;SDS011;67177;47.240;-1.546;2023-03-20T08:35:02;3.80;;;1.10;;
77984;SDS011;67177;47.240;-1.546;2023-03-20T08:37:28;3.42;;;1.00;;
77984;SDS011;67177;47.240;-1.546;2023-03-20T08:39:54;4.47;;;1.27;;
77984;SDS011;67177;47.240;-1.546;2023-03-20T08:42:19;7.38;;;1.27;;
77984;SDS011;67177;47.240;-1.546;2023-03-20T08:44:45;6.57;;;1.60;;
77984;SDS011;67177;47.240;-1.546;2023-03-20T08:47:12;6.40;;;1.30;;
77984;SDS011;67177;47.240;-1.546;2023-03-20T08:49:37;5.68;;;1.42;;
77984;SDS011;67177;47.240;-1.546;2023-03-20T08:52:03;6.75;;;1.50;;
77984;SDS011;67177;47.240;-1.546;2023-03-20T08:54:30;10.27;;;1.60;;
77984;SDS011;67177;47.240;-1.546;2023-03-20T08:56:55;8.97;;;1.77;;
77984;SDS011;67177;47.240;-1.546;2023-03-20T08:59:21;5.05;;;1.50;;
77984;SDS011;67177;47.240;-1.546;2023-03-20T09:01:47;6.22;;;1.70;;
77984;SDS011;67177;47.240;-1.546;2023-03-20T09:04:13;9.53;;;1.70;;
77984;SDS011;67177;47.240;-1.546;2023-03-20T09:06:39;6.40;;;1.30;;
77984;SDS011;67177;47.240;-1.546;2023-03-20T09:09:06;8.07;;;1.58;;
77984;SDS011;67177;47.240;-1.546;2023-03-20T09:11:32;6.03;;;1.30;;
77984;SDS011;67177;47.240;-1.546;2023-03-20T09:13:58;5.72;;;1.40;;
77984;SDS011;67177;47.240;-1.546;2023-03-20T09:16:24;5.75;;;1.30;;
77984;SDS011;67177;47.240;-1.546;2023-03-20T09:18:50;5.27;;;1.30;;
77984;SDS011;67177;47.240;-1.546;2023-03-20T09:21:15;5.03;;;1.35;;
77984;SDS011;67177;47.240;-1.546;2023-03-20T09:23:41;5.30;;;1.27;;
77984;SDS011;67177;47.240;-1.546;2023-03-20T09:26:07;8.23;;;1.75;;
77984;SDS011;67177;47.240;-1.546;2023-03-20T09:28:33;6.37;;;1.33;;
77984;SDS011;67177;47.240;-1.546;2023-03-20T09:30:58;5.28;;;1.13;;
77984;SDS011;67177;47.240;-1.546;2023-03-20T09:33:25;6.22;;;1.42;;
77984;SDS011;67177;47.240;-1.546;2023-03-20T09:35:51;5.28;;;1.05;;
77984;SDS011;67177;47.240;-1.546;2023-03-20T09:38:17;8.23;;;1.33;;
77984;SDS011;67177;47.240;-1.546;2023-03-20T09:40:50;5.55;;;1.55;;
77984;SDS011;67177;47.240;-1.546;2023-03-20T09:48:58;5.25;;;0.70;;
77984;SDS011;67177;47.240;-1.546;2023-03-20T09:54:53;7.13;;;0.90;;
77984;SDS011;67177;47.240;-1.546;2023-03-20T09:57:21;4.38;;;0.90;;
77984;SDS011;67177;47.240;-1.546;2023-03-20T09:59:54;4.10;;;0.70;;
77984;SDS011;67177;47.240;-1.546;2023-03-20T10:02:33;3.25;;;0.60;;
77984;SDS011;67177;47.240;-1.546;2023-03-20T10:05:08;4.25;;;1.00;;
77984;SDS011;67177;47.240;-1.546;2023-03-20T10:07:51;5.20;;;0.85;;
77984;SDS011;67177;47.240;-1.546;2023-03-20T10:10:21;4.72;;;1.00;;
77984;SDS011;67177;47.240;-1.546;2023-03-20T10:13:29;5.80;;;0.93;;
77984;SDS011;67177;47.240;-1.546;2023-03-20T10:19:01;6.85;;;1.00;;
77984;SDS011;67177;47.240;-1.546;2023-03-20T10:21:42;4.30;;;0.80;;
77984;SDS011;67177;47.240;-1.546;2023-03-20T10:24:13;4.90;;;0.85;;
77984;SDS011;67177;47.240;-1.546;2023-03-20T10:26:57;3.70;;;0.60;;
77984;SDS011;67177;47.240;-1.546;2023-03-20T10:29:37;4.10;;;0.80;;
77984;SDS011;67177;47.240;-1.546;2023-03-20T10:32:26;3.63;;;0.80;;
77984;SDS011;67177;47.240;-1.546;2023-03-20T10:35:12;3.75;;;0.70;;
77984;SDS011;67177;47.240;-1.546;2023-03-20T10:40:36;4.17;;;0.80;;
77984;SDS011;67177;47.240;-1.546;2023-03-20T10:43:16;4.88;;;0.95;;
77984;SDS011;67177;47.240;-1.546;2023-03-20T10:45:45;5.78;;;1.05;;
77984;SDS011;67177;47.240;-1.546;2023-03-20T10:48:20;4.63;;;1.20;;
77984;SDS011;67177;47.240;-1.546;2023-03-20T10:50:53;4.53;;;0.90;;
77984;SDS011;67177;47.240;-1.546;2023-03-20T10:53:36;6.83;;;1.17;;
77984;SDS011;67177;47.240;-1.546;2023-03-20T11:02:11;4.25;;;1.00;;
77984;SDS011;67177;47.240;-1.546;2023-03-20T11:04:38;5.55;;;0.90;;
77984;SDS011;67177;47.240;-1.546;2023-03-20T11:12:37;4.82;;;1.02;;
77984;SDS011;67177;47.240;-1.546;2023-03-20T11:15:18;5.57;;;0.80;;
77984;SDS011;67177;47.240;-1.546;2023-03-20T11:18:17;3.50;;;0.70;;
77984;SDS011;67177;47.240;-1.546;2023-03-20T11:21:00;3.80;;;0.60;;
77984;SDS011;67177;47.240;-1.546;2023-03-20T11:23:26;3.92;;;0.80;;
77984;SDS011;67177;47.240;-1.546;2023-03-20T11:26:00;7.20;;;1.20;;
77984;SDS011;67177;47.240;-1.546;2023-03-20T11:31:20;7.68;;;1.30;;
77984;SDS011;67177;47.240;-1.546;2023-03-20T11:36:26;7.20;;;1.20;;
77984;SDS011;67177;47.240;-1.546;2023-03-20T11:39:07;5.65;;;1.05;;
77984;SDS011;67177;47.240;-1.546;2023-03-20T11:41:51;5.25;;;0.90;;
77984;SDS011;67177;47.240;-1.546;2023-03-20T11:44:26;5.35;;;0.85;;
77984;SDS011;67177;47.240;-1.546;2023-03-20T11:47:10;5.03;;;1.00;;
77984;SDS011;67177;47.240;-1.546;2023-03-20T11:49:45;4.82;;;1.20;;
77984;SDS011;67177;47.240;-1.546;2023-03-20T11:52:16;3.35;;;0.80;;
77984;SDS011;67177;47.240;-1.546;2023-03-20T11:54:47;2.40;;;0.52;;
77984;SDS011;67177;47.240;-1.546;2023-03-20T11:57:34;4.85;;;0.90;;
77984;SDS011;67177;47.240;-1.546;2023-03-20T12:02:39;7.80;;;1.20;;
77984;SDS011;67177;47.240;-1.546;2023-03-20T12:07:54;4.75;;;1.15;;
77984;SDS011;67177;47.240;-1.546;2023-03-20T12:10:23;4.97;;;1.08;;
77984;SDS011;67177;47.240;-1.546;2023-03-20T12:12:55;4.60;;;0.93;;
77984;SDS011;67177;47.240;-1.546;2023-03-20T12:15:36;5.53;;;0.90;;
77984;SDS011;67177;47.240;-1.546;2023-03-20T12:23:36;4.53;;;0.90;;
77984;SDS011;67177;47.240;-1.546;2023-03-20T12:26:11;3.73;;;0.77;;
77984;SDS011;67177;47.240;-1.546;2023-03-20T12:28:53;3.33;;;0.70;;
77984;SDS011;67177;47.240;-1.546;2023-03-20T12:31:25;3.92;;;0.70;;
77984;SDS011;67177;47.240;-1.546;2023-03-20T12:34:10;3.45;;;0.65;;
77984;SDS011;67177;47.240;-1.546;2023-03-20T12:36:49;3.88;;;0.90;;
77984;SDS011;67177;47.240;-1.546;2023-03-20T12:39:22;3.80;;;0.70;;
77984;SDS011;67177;47.240;-1.546;2023-03-20T12:45:02;2.72;;;0.50;;
77984;SDS011;67177;47.240;-1.546;2023-03-20T12:50:59;2.53;;;0.60;;
77984;SDS011;67177;47.240;-1.546;2023-03-20T12:59:11;4.68;;;0.73;;
77984;SDS011;67177;47.240;-1.546;2023-03-20T13:01:44;2.75;;;0.63;;
77984;SDS011;67177;47.240;-1.546;2023-03-20T13:04:23;2.35;;;0.70;;
77984;SDS011;67177;47.240;-1.546;2023-03-20T13:09:20;5.60;;;0.95;;
77984;SDS011;67177;47.240;-1.546;2023-03-20T13:28:22;6.07;;;1.10;;
77984;SDS011;67177;47.240;-1.546;2023-03-20T13:38:46;4.47;;;0.80;;
77984;SDS011;67177;47.240;-1.546;2023-03-20T13:41:16;7.72;;;1.48;;
77984;SDS011;67177;47.240;-1.546;2023-03-20T13:43:44;9.10;;;1.77;;
77984;SDS011;67177;47.240;-1.546;2023-03-20T13:46:30;5.70;;;1.35;;
77984;SDS011;67177;47.240;-1.546;2023-03-20T13:49:04;5.35;;;1.13;;
77984;SDS011;67177;47.240;-1.546;2023-03-20T14:05:20;7.50;;;1.55;;
77984;SDS011;67177;47.240;-1.546;2023-03-20T14:07:48;5.33;;;1.53;;
77984;SDS011;67177;47.240;-1.546;2023-03-20T14:12:50;4.43;;;1.10;;
77984;SDS011;67177;47.240;-1.546;2023-03-20T14:15:20;5.97;;;1.13;;
77984;SDS011;67177;47.240;-1.546;2023-03-20T14:17:47;3.20;;;0.80;;
77984;SDS011;67177;47.240;-1.546;2023-03-20T14:20:36;3.20;;;0.80;;
77984;SDS011;67177;47.240;-1.546;2023-03-20T14:23:02;4.13;;;1.00;;
77984;SDS011;67177;47.240;-1.546;2023-03-20T14:25:33;5.47;;;0.90;;
77984;SDS011;67177;47.240;-1.546;2023-03-20T14:35:44;4.25;;;0.90;;
77984;SDS011;67177;47.240;-1.546;2023-03-20T14:49:21;3.28;;;0.88;;
77984;SDS011;67177;47.240;-1.546;2023-03-20T14:51:59;5.10;;;1.15;;
77984;SDS011;67177;47.240;-1.546;2023-03-20T14:54:38;4.05;;;0.90;;
77984;SDS011;67177;47.240;-1.546;2023-03-20T14:57:09;4.13;;;0.80;;
77984;SDS011;67177;47.240;-1.546;2023-03-20T14:59:42;5.23;;;1.17;;
77984;SDS011;67177;47.240;-1.546;2023-03-20T15:02:21;3.90;;;0.90;;
77984;SDS011;67177;47.240;-1.546;2023-03-20T15:04:50;3.83;;;0.90;;
77984;SDS011;67177;47.240;-1.546;2023-03-20T15:07:21;4.33;;;1.00;;
77984;SDS011;67177;47.240;-1.546;2023-03-20T15:09:55;3.95;;;1.02;;
77984;SDS011;67177;47.240;-1.546;2023-03-20T15:12:25;5.80;;;1.00;;
77984;SDS011;67177;47.240;-1.546;2023-03-20T15:14:56;3.33;;;0.82;;
77984;SDS011;67177;47.240;-1.546;2023-03-20T15:17:29;4.13;;;1.02;;
77984;SDS011;67177;47.240;-1.546;2023-03-20T15:20:00;5.13;;;1.10;;
77984;SDS011;67177;47.240;-1.546;2023-03-20T15:22:47;5.40;;;1.10;;
77984;SDS011;67177;47.240;-1.546;2023-03-20T15:25:16;3.78;;;0.80;;
77984;SDS011;67177;47.240;-1.546;2023-03-20T15:27:43;3.90;;;0.95;;
77984;SDS011;67177;47.240;-1.546;2023-03-20T15:30:10;6.50;;;0.90;;
77984;SDS011;67177;47.240;-1.546;2023-03-20T15:32:39;3.30;;;0.80;;
77984;SDS011;67177;47.240;-1.546;2023-03-20T15:35:14;3.03;;;0.80;;
77984;SDS011;67177;47.240;-1.546;2023-03-20T15:37:46;2.92;;;0.70;;
77984;SDS011;67177;47.240;-1.546;2023-03-20T15:40:37;3.55;;;0.70;;
77984;SDS011;67177;47.240;-1.546;2023-03-20T15:43:05;3.15;;;0.70;;
77984;SDS011;67177;47.240;-1.546;2023-03-20T15:45:39;3.80;;;0.90;;
77984;SDS011;67177;47.240;-1.546;2023-03-20T15:50:34;4.65;;;1.10;;
77984;SDS011;67177;47.240;-1.546;2023-03-20T15:53:02;3.83;;;0.80;;
77984;SDS011;67177;47.240;-1.546;2023-03-20T15:55:35;2.92;;;0.80;;
77984;SDS011;67177;47.240;-1.546;2023-03-20T15:58:01;4.40;;;0.83;;
77984;SDS011;67177;47.240;-1.546;2023-03-20T16:00:31;4.07;;;0.95;;
77984;SDS011;67177;47.240;-1.546;2023-03-20T16:03:24;4.45;;;0.77;;
77984;SDS011;67177;47.240;-1.546;2023-03-20T16:05:52;5.28;;;1.10;;
77984;SDS011;67177;47.240;-1.546;2023-03-20T16:08:29;4.78;;;0.82;;
77984;SDS011;67177;47.240;-1.546;2023-03-20T16:11:06;4.27;;;1.10;;
77984;SDS011;67177;47.240;-1.546;2023-03-20T16:13:41;5.13;;;1.05;;
77984;SDS011;67177;47.240;-1.546;2023-03-20T16:16:14;3.92;;;0.80;;
77984;SDS011;67177;47.240;-1.546;2023-03-20T16:18:45;5.10;;;1.10;;
77984;SDS011;67177;47.240;-1.546;2023-03-20T16:21:21;6.63;;;2.88;;
77984;SDS011;67177;47.240;-1.546;2023-03-20T16:24:09;3.67;;;0.73;;
77984;SDS011;67177;47.240;-1.546;2023-03-20T16:26:42;4.80;;;0.95;;
77984;SDS011;67177;47.240;-1.546;2023-03-20T16:29:10;6.53;;;1.20;;
77984;SDS011;67177;47.240;-1.546;2023-03-20T16:31:40;4.10;;;0.90;;
77984;SDS011;67177;47.240;-1.546;2023-03-20T16:34:16;4.35;;;0.90;;
77984;SDS011;67177;47.240;-1.546;2023-03-20T16:36:48;3.67;;;0.90;;
77984;SDS011;67177;47.240;-1.546;2023-03-20T16:39:18;3.42;;;0.80;;
77984;SDS011;67177;47.240;-1.546;2023-03-20T16:41:45;3.63;;;0.80;;
77984;SDS011;67177;47.240;-1.546;2023-03-20T16:44:17;4.43;;;0.98;;
77984;SDS011;67177;47.240;-1.546;2023-03-20T16:46:56;3.97;;;0.90;;
77984;SDS011;67177;47.240;-1.546;2023-03-20T16:51:56;5.28;;;0.80;;
77984;SDS011;67177;47.240;-1.546;2023-03-20T16:54:25;5.35;;;1.17;;
77984;SDS011;67177;47.240;-1.546;2023-03-20T16:56:54;5.30;;;1.00;;
77984;SDS011;67177;47.240;-1.546;2023-03-20T16:59:20;4.35;;;0.70;;
77984;SDS011;67177;47.240;-1.546;2023-03-20T17:01:48;3.97;;;0.90;;
77984;SDS011;67177;47.240;-1.546;2023-03-20T17:06:51;3.78;;;0.80;;
77984;SDS011;67177;47.240;-1.546;2023-03-20T17:11:50;4.80;;;0.80;;
77984;SDS011;67177;47.240;-1.546;2023-03-20T17:14:27;3.80;;;0.70;;
77984;SDS011;67177;47.240;-1.546;2023-03-20T17:16:53;4.10;;;0.90;;
77984;SDS011;67177;47.240;-1.546;2023-03-20T17:19:21;6.82;;;1.20;;
77984;SDS011;67177;47.240;-1.546;2023-03-20T17:21:47;5.45;;;1.00;;
77984;SDS011;67177;47.240;-1.546;2023-03-20T17:24:13;4.70;;;1.20;;
77984;SDS011;67177;47.240;-1.546;2023-03-20T17:26:44;4.83;;;1.00;;
77984;SDS011;67177;47.240;-1.546;2023-03-20T17:29:14;3.90;;;0.85;;
77984;SDS011;67177;47.240;-1.546;2023-03-20T17:31:40;3.33;;;0.90;;
77984;SDS011;67177;47.240;-1.546;2023-03-20T17:34:06;4.70;;;0.80;;
77984;SDS011;67177;47.240;-1.546;2023-03-20T17:36:34;2.80;;;0.70;;
77984;SDS011;67177;47.240;-1.546;2023-03-20T17:39:00;3.30;;;0.80;;
77984;SDS011;67177;47.240;-1.546;2023-03-20T17:41:26;3.97;;;0.80;;
77984;SDS011;67177;47.240;-1.546;2023-03-20T17:43:52;6.65;;;1.10;;
77984;SDS011;67177;47.240;-1.546;2023-03-20T17:46:22;4.35;;;0.90;;
77984;SDS011;67177;47.240;-1.546;2023-03-20T17:48:50;3.75;;;1.00;;
77984;SDS011;67177;47.240;-1.546;2023-03-20T17:51:21;4.40;;;1.00;;
77984;SDS011;67177;47.240;-1.546;2023-03-20T17:53:47;4.07;;;0.90;;